Arnold, Maryland
Current Conditions -  °F | °C
As of 1:49 PM on Wednesday 26 Nov 2014 (Local Time) from KNAK Reporting Station
Light Rain Light Rain  
Wind Chill: 29°   Ceiling: 1000
Heat Index: 37°   Visibility: 7mi
Dew Point: 36°   Wind: 13mph
Humidity: 93%   Direction: 350°N
Pressure: 29.89"   Gusts: 22mph
Location:  39.03°N, 76.51°W
Report Text: KNAK 261849Z AUTO 35011G19KT 7SM -RA OVC010 03/02 A2989 RMK AO2 UPB13E34 CIG 008V013 P0002
Loading
Personal Weather Stations






























Interactive Weather Map New forecast layout! Learn more

10-Day Weather Forecast

Advertisements
Track Severe Weather on mobile